Time;durP1;ratioP1;P1;durP2;ratioP2;P2;SDS_P1;SDS_P2;PMS_P1;PMS_P2;Temp;Humidity;BMP_temperature;BMP_pressure;BME280_temperature;BME280_humidity;BME280_pressure;Samples;Min_cycle;Max_cycle;Signal;HPM_P1;HPM_P2
2022/11/06 00:00:26;;;;;;;;;;;5.70;69.50;;;0.81;100.00;95914.34;4915537;29;19937;-48
2022/11/06 00:03:00;;;;;;;;;;;5.70;69.60;;;0.87;100.00;95917.00;4936255;29;19910;-48
2022/11/06 00:08:39;;;;;;;;;;;5.70;69.60;;;0.86;100.00;95910.16;4934860;29;20432;-46
2022/11/06 00:11:16;;;;;;;;;;;5.70;69.60;;;0.85;100.00;95913.78;4877639;29;19911;-47
2022/11/06 00:13:43;;;;;;;;;;;5.70;69.60;;;0.86;100.00;95925.88;4935446;29;19911;-47
2022/11/06 00:16:13;;;;;;;;;;;5.70;69.70;;;0.88;100.00;95930.94;4932590;29;19918;-48
2022/11/06 00:18:40;;;;;;;;;;;5.70;69.80;;;0.83;100.00;95923.66;4917760;29;19919;-51
2022/11/06 00:21:22;;;;;;;;;;;5.80;69.80;;;0.88;100.00;95912.59;4933210;29;19954;-47
2022/11/06 00:23:54;;;;;;;;;;;5.80;69.80;;;0.89;100.00;95907.13;4929976;29;19911;-48
2022/11/06 00:26:24;;;;;;;;;;;5.70;69.80;;;0.92;100.00;95904.13;4917227;29;19921;-47
2022/11/06 00:28:51;;;;;;;;;;;5.80;69.90;;;0.95;100.00;95897.69;4933328;29;19941;-48
2022/11/06 00:31:24;;;;;;;;;;;5.70;69.80;;;0.95;100.00;95896.88;4921798;29;19934;-48
2022/11/06 00:33:51;;;;;;;;;;;5.80;69.80;;;0.95;100.00;95891.63;4933929;29;19919;-51
2022/11/06 00:36:21;;;;;;;;;;;5.80;69.80;;;0.93;100.00;95883.94;4933665;29;19910;-49
2022/11/06 00:38:54;;;;;;;;;;;5.80;69.90;;;0.91;100.00;95875.47;4930444;29;19911;-46
2022/11/06 00:41:21;;;;;;;;;;;5.80;69.80;;;0.87;100.00;95875.03;4932844;29;19925;-46
2022/11/06 00:44:08;;;;;;;;;;;5.80;69.80;;;0.84;100.00;95872.00;4913689;29;19993;-46
2022/11/06 00:46:36;;;;;;;;;;;5.70;69.70;;;0.84;100.00;95864.94;4915292;29;19910;-51
2022/11/06 00:49:01;;;;;;;;;;;5.70;69.70;;;0.84;100.00;95864.94;4933837;29;19940;-48
2022/11/06 00:51:35;;;;;;;;;;;5.70;69.70;;;0.82;100.00;95856.47;4933090;29;19917;-46
2022/11/06 00:54:05;;;;;;;;;;;5.70;69.80;;;0.86;100.00;95856.88;4932343;29;19917;-46
2022/11/06 00:56:31;;;;;;;;;;;5.70;69.90;;;0.91;100.00;95857.91;4935096;29;19917;-51
2022/11/06 00:59:05;;;;;;;;;;;5.70;69.90;;;0.92;100.00;95863.97;4932546;29;19910;-50
2022/11/06 01:01:38;;;;;;;;;;;5.70;70.20;;;0.87;100.00;95866.34;4933497;29;20257;-47
2022/11/06 01:04:17;;;;;;;;;;;5.70;69.90;;;0.83;100.00;95870.38;4915519;29;19914;-48
2022/11/06 01:06:47;;;;;;;;;;;5.70;69.80;;;0.90;100.00;95876.47;4934854;29;20012;-46
2022/11/06 01:09:21;;;;;;;;;;;5.70;69.90;;;0.91;100.00;95881.53;4931875;29;20369;-46
2022/11/06 01:11:53;;;;;;;;;;;5.80;70.00;;;0.86;100.00;95881.28;4916596;29;20015;-47
2022/11/06 01:14:21;;;;;;;;;;;5.70;69.80;;;0.86;100.00;95878.66;4915066;29;19914;-49
2022/11/06 01:16:48;;;;;;;;;;;5.70;69.80;;;0.83;100.00;95897.41;4930404;29;20001;-46
2022/11/06 01:19:17;;;;;;;;;;;5.70;69.70;;;0.80;100.00;95899.63;4930105;29;20297;-51
2022/11/06 01:21:47;;;;;;;;;;;5.70;69.70;;;0.74;100.00;95898.59;4933229;29;20005;-46
2022/11/06 01:24:20;;;;;;;;;;;5.70;69.70;;;0.71;100.00;95892.94;4932419;29;20400;-47
2022/11/06 01:26:47;;;;;;;;;;;5.70;69.60;;;0.63;100.00;95894.72;4916997;29;19965;-46
2022/11/06 01:29:20;;;;;;;;;;;5.70;69.70;;;0.59;100.00;95903.97;4918518;29;20405;-46
2022/11/06 01:31:49;;;;;;;;;;;5.60;69.60;;;0.55;100.00;95907.16;4913138;29;19910;-46
2022/11/06 01:34:15;;;;;;;;;;;5.60;69.60;;;0.51;100.00;95898.88;4919491;29;19910;-48
2022/11/06 01:36:47;;;;;;;;;;;5.60;69.50;;;0.51;100.00;95901.50;4932775;29;20461;-52
2022/11/06 01:39:15;;;;;;;;;;;5.60;69.60;;;0.50;100.00;95897.25;4934241;29;19971;-48
2022/11/06 01:41:48;;;;;;;;;;;5.50;70.30;;;0.46;100.00;95888.97;4929446;28;19933;-45
2022/11/06 01:44:32;;;;;;;;;;;5.50;69.50;;;0.42;100.00;95885.13;4914310;29;19969;-46
2022/11/06 01:47:23;;;;;;;;;;;5.50;69.50;;;0.38;100.00;95870.81;4932696;29;20384;-46
2022/11/06 01:50:04;;;;;;;;;;;5.40;69.50;;;0.32;100.00;95870.75;4931337;29;20805;-46
2022/11/06 01:52:33;;;;;;;;;;;5.40;69.60;;;0.35;100.00;95865.13;4915510;29;19911;-49
2022/11/06 01:55:26;;;;;;;;;;;5.40;69.70;;;0.34;100.00;95858.25;4915358;29;20041;-51
2022/11/06 01:57:54;;;;;;;;;;;5.30;69.60;;;0.30;100.00;95857.84;4930447;29;19911;-51
2022/11/06 02:00:20;;;;;;;;;;;5.30;69.60;;;0.29;100.00;95855.44;4916458;29;20016;-49
2022/11/06 02:02:47;;;;;;;;;;;5.30;69.60;;;0.25;100.00;95854.19;4930270;29;20353;-48
2022/11/06 02:05:13;;;;;;;;;;;5.20;69.50;;;0.21;100.00;95853.75;4931234;29;19914;-47
2022/11/06 02:07:41;;;;;;;;;;;5.20;69.60;;;0.16;100.00;95846.50;4915878;29;20330;-50
2022/11/06 02:10:08;;;;;;;;;;;5.20;69.70;;;0.17;100.00;95848.09;4930230;29;19911;-48
2022/11/06 02:13:21;;;;;;;;;;;5.20;69.70;;;0.16;100.00;95841.25;4927694;29;19914;-48
2022/11/06 02:16:38;;;;;;;;;;;5.10;69.60;;;0.13;100.00;95839.00;4929311;29;20389;-50
2022/11/06 02:19:23;;;;;;;;;;;5.10;69.70;;;0.04;100.00;95837.53;4915867;29;20017;-53
2022/11/06 02:22:47;;;;;;;;;;;5.10;69.70;;;0.05;100.00;95835.72;4932619;29;19974;-53
2022/11/06 02:26:01;;;;;;;;;;;5.00;69.80;;;0.05;100.00;95836.53;4933220;29;19914;-49
2022/11/06 02:28:49;;;;;;;;;;;5.00;69.80;;;0.00;100.00;95831.09;4929151;29;20013;-52
2022/11/06 02:31:25;;;;;;;;;;;5.00;69.80;;;-0.05;100.00;95826.41;4930148;29;20381;-50
2022/11/06 02:34:04;;;;;;;;;;;4.90;69.80;;;-0.06;100.00;95827.41;4930360;29;19918;-54
2022/11/06 02:36:39;;;;;;;;;;;4.90;69.90;;;-0.03;100.00;95821.78;4932276;29;19910;-48
2022/11/06 02:39:16;;;;;;;;;;;4.90;69.90;;;-0.04;100.00;95822.78;4910520;29;19990;-51
2022/11/06 02:41:59;;;;;;;;;;;4.90;69.80;;;-0.08;100.00;95810.28;4932170;29;20024;-47
2022/11/06 02:44:33;;;;;;;;;;;4.90;69.80;;;-0.08;100.00;95811.06;4931851;29;19914;-48
2022/11/06 02:47:09;;;;;;;;;;;4.90;69.80;;;-0.08;100.00;95805.03;4931360;29;19911;-52
2022/11/06 02:50:10;;;;;;;;;;;4.90;69.80;;;-0.15;100.00;95799.75;4931847;29;19917;-47
2022/11/06 02:53:01;;;;;;;;;;;4.80;69.70;;;-0.22;100.00;95806.75;4924678;29;19917;-47
2022/11/06 02:55:44;;;;;;;;;;;4.80;69.70;;;-0.29;100.00;95791.00;4932174;29;20428;-52
2022/11/06 02:58:37;;;;;;;;;;;4.80;69.80;;;-0.32;100.00;95780.91;4930087;29;19911;-50
2022/11/06 03:01:23;;;;;;;;;;;4.80;69.80;;;-0.33;100.00;95773.25;4916352;29;20365;-49
2022/11/06 03:03:55;;;;;;;;;;;4.70;69.80;;;-0.34;100.00;95766.41;4923180;29;19914;-54
2022/11/06 03:07:21;;;;;;;;;;;4.70;69.90;;;-0.35;100.00;95770.00;4931116;29;19910;-47
2022/11/06 03:09:48;;;;;;;;;;;4.70;70.00;;;-0.33;100.00;95768.81;4918917;29;19956;-52
2022/11/06 03:12:48;;;;;;;;;;;4.70;70.10;;;-0.30;100.00;95763.22;4919435;29;19911;-45
2022/11/06 03:15:38;;;;;;;;;;;4.70;70.10;;;-0.27;100.00;95762.81;4895042;29;19910;-50
2022/11/06 03:20:55;;;;;;;;;;;4.70;70.20;;;-0.21;100.00;95773.53;4991010;28;19928;-54
2022/11/06 03:24:03;;;;;;;;;;;4.70;70.20;;;-0.17;100.00;95778.19;4990856;28;19971;-52
2022/11/06 03:26:54;;;;;;;;;;;4.70;70.20;;;-0.18;100.00;95767.91;4988247;28;19909;-53
2022/11/06 03:30:07;;;;;;;;;;;4.70;70.90;;;-0.21;100.00;95765.69;4990752;28;19909;-53
2022/11/06 03:32:56;;;;;;;;;;;4.70;70.10;;;-0.20;100.00;95762.84;4988310;28;19910;-54
2022/11/06 03:36:02;;;;;;;;;;;4.70;70.20;;;-0.19;100.00;95767.09;4985204;28;19924;-53
2022/11/06 03:38:54;;;;;;;;;;;4.70;70.30;;;-0.09;100.00;95774.63;4993482;28;19909;-50
2022/11/06 03:41:59;;;;;;;;;;;4.70;70.40;;;-0.07;100.00;95769.97;4972312;28;20395;-52
2022/11/06 03:44:29;;;;;;;;;;;4.70;70.40;;;-0.06;100.00;95769.00;4984484;28;19920;-50
2022/11/06 03:47:33;;;;;;;;;;;4.80;70.50;;;-0.09;100.00;95770.19;4991220;28;19909;-55
2022/11/06 03:50:19;;;;;;;;;;;4.80;70.50;;;-0.07;100.00;95765.53;4991811;28;19917;-51
2022/11/06 03:53:10;;;;;;;;;;;4.80;70.50;;;-0.05;100.00;95766.16;4990512;28;19915;-55
2022/11/06 03:55:59;;;;;;;;;;;4.80;70.50;;;-0.03;100.00;95772.03;4992431;28;19952;-56
2022/11/06 03:58:34;;;;;;;;;;;4.80;70.40;;;-0.08;100.00;95773.59;4990023;28;19948;-56
2022/11/06 04:01:07;;;;;;;;;;;4.80;70.40;;;-0.10;100.00;95793.94;4992754;28;19913;-54
2022/11/06 04:04:01;;;;;;;;;;;4.80;70.30;;;-0.10;100.00;95767.75;4970170;28;19909;-55
2022/11/06 04:06:51;;;;;;;;;;;4.80;70.40;;;-0.05;100.00;95765.38;4988760;28;19952;-54
2022/11/06 04:15:02;;;;;;;;;;;4.90;70.80;;;0.20;100.00;95769.13;4988053;28;19917;-54
2022/11/06 04:17:30;;;;;;;;;;;5.00;71.00;;;0.28;100.00;95773.38;4969725;28;19910;-50
2022/11/06 04:20:05;;;;;;;;;;;5.00;71.00;;;0.37;100.00;95768.78;4991900;28;19918;-50
2022/11/06 04:22:56;;;;;;;;;;;5.10;71.00;;;0.44;100.00;95769.63;4989403;28;20020;-51
2022/11/06 04:28:59;;;;;;;;;;;5.30;71.10;;;0.61;100.00;95759.59;4992400;28;19959;-50
2022/11/06 04:32:00;;;;;;;;;;;5.40;71.20;;;0.61;100.00;95767.44;4992422;28;19913;-53
2022/11/06 04:35:07;;;;;;;;;;;5.40;71.10;;;0.65;100.00;95764.22;4976121;28;19913;-56
2022/11/06 04:38:34;;;;;;;;;;;5.50;71.10;;;0.69;100.00;95759.41;4965818;28;19924;-50
2022/11/06 04:41:21;;;;;;;;;;;5.50;71.00;;;0.73;100.00;95763.25;4927114;29;19941;-54
2022/11/06 04:44:28;;;;;;;;;;;5.60;71.00;;;0.77;100.00;95756.59;4968092;28;19909;-53
2022/11/06 04:47:19;;;;;;;;;;;5.60;71.00;;;0.83;100.00;95758.41;4991960;28;19909;-54
2022/11/06 04:50:00;;;;;;;;;;;5.60;71.00;;;0.87;100.00;95749.13;4989585;28;20048;-53
2022/11/06 04:52:28;;;;;;;;;;;5.70;71.00;;;0.87;100.00;95758.81;4989819;28;20043;-55
2022/11/06 04:54:57;;;;;;;;;;;5.70;71.00;;;0.90;100.00;95753.19;4991862;28;19917;-57
2022/11/06 04:57:24;;;;;;;;;;;5.70;70.90;;;0.92;100.00;95743.31;4991646;28;19913;-57
2022/11/06 04:59:50;;;;;;;;;;;5.80;70.90;;;0.94;100.00;95728.19;4979204;28;20446;-56
2022/11/06 05:02:23;;;;;;;;;;;5.80;70.80;;;0.98;100.00;95723.34;4991680;28;19913;-54
2022/11/06 05:05:01;;;;;;;;;;;5.90;70.80;;;1.02;100.00;95716.69;4962092;28;19913;-54
2022/11/06 05:07:32;;;;;;;;;;;5.90;70.70;;;1.03;100.00;95713.03;4992366;28;19909;-56
2022/11/06 05:09:58;;;;;;;;;;;5.90;70.70;;;1.01;100.00;95715.88;4986318;28;19963;-53
2022/11/06 05:12:26;;;;;;;;;;;5.90;70.60;;;0.99;100.00;95701.34;4988995;28;19917;-52
2022/11/06 05:14:57;;;;;;;;;;;5.90;70.60;;;1.04;100.00;95706.78;4975205;28;19910;-50
2022/11/06 05:17:23;;;;;;;;;;;6.00;70.60;;;1.05;100.00;95711.03;4977933;28;19913;-52
2022/11/06 05:19:49;;;;;;;;;;;6.00;70.60;;;1.08;100.00;95716.69;4980988;28;19928;-54
2022/11/06 05:25:17;;;;;;;;;;;6.00;70.60;;;1.09;100.00;95710.41;4993003;28;20075;-54
2022/11/06 05:27:43;;;;;;;;;;;6.00;70.50;;;1.07;100.00;95703.78;4991826;28;20268;-54
2022/11/06 05:30:09;;;;;;;;;;;6.00;70.50;;;1.06;100.00;95707.38;4983746;28;19917;-53
2022/11/06 05:32:47;;;;;;;;;;;6.00;70.50;;;1.08;100.00;95702.75;4979739;28;20008;-52
2022/11/06 05:35:14;;;;;;;;;;;6.00;70.50;;;1.10;100.00;95716.50;4982415;28;19910;-53
2022/11/06 05:37:40;;;;;;;;;;;6.00;70.50;;;1.08;100.00;95719.31;4990550;28;19909;-52
2022/11/06 05:40:07;;;;;;;;;;;6.10;70.50;;;1.07;100.00;95706.41;4988962;28;19917;-52
2022/11/06 05:42:36;;;;;;;;;;;6.10;70.50;;;1.09;100.00;95710.41;4990625;28;19956;-54
2022/11/06 05:45:02;;;;;;;;;;;6.10;70.50;;;1.04;100.00;95712.84;4974072;28;19990;-54
2022/11/06 05:47:28;;;;;;;;;;;6.10;70.50;;;1.06;100.00;95723.13;4986646;28;20287;-51
2022/11/06 05:50:03;;;;;;;;;;;6.10;70.50;;;1.09;100.00;95713.03;4955896;28;19916;-55
2022/11/06 05:52:29;;;;;;;;;;;6.10;70.50;;;1.11;100.00;95711.03;4969065;28;19910;-53
2022/11/06 05:54:57;;;;;;;;;;;6.20;70.50;;;1.15;100.00;95706.19;4987813;28;19924;-53
2022/11/06 05:57:23;;;;;;;;;;;6.20;70.40;;;1.16;100.00;95694.69;4990499;28;19909;-56
2022/11/06 05:59:55;;;;;;;;;;;6.20;70.40;;;1.16;100.00;95699.94;4978138;28;19964;-56
2022/11/06 06:02:20;;;;;;;;;;;6.20;70.40;;;0.99;100.00;95686.41;4985862;28;20268;-53
2022/11/06 06:04:49;;;;;;;;;;;6.20;70.30;;;0.96;100.00;95691.25;4989051;28;19909;-55
2022/11/06 06:07:15;;;;;;;;;;;6.20;70.20;;;0.95;100.00;95685.19;4973676;28;19963;-55
2022/11/06 06:09:47;;;;;;;;;;;6.10;70.10;;;1.00;100.00;95695.88;4989682;28;20004;-56
2022/11/06 06:12:12;;;;;;;;;;;6.10;70.20;;;0.99;100.00;95685.59;4982516;28;19941;-54
2022/11/06 06:14:38;;;;;;;;;;;6.00;70.20;;;0.92;100.00;95680.34;4989505;28;19963;-54
2022/11/06 06:17:07;;;;;;;;;;;6.00;70.30;;;0.93;100.00;95679.34;4985900;28;19909;-54
2022/11/06 06:19:32;;;;;;;;;;;6.00;70.30;;;0.97;100.00;95682.34;4989241;28;20017;-56
2022/11/06 06:21:58;;;;;;;;;;;6.00;70.40;;;0.98;100.00;95682.16;4973160;28;20007;-55
2022/11/06 06:24:27;;;;;;;;;;;6.00;70.40;;;1.01;100.00;95683.59;4990397;28;19920;-54
2022/11/06 06:26:59;;;;;;;;;;;6.00;70.40;;;0.99;100.00;95691.66;4957630;28;20000;-51
2022/11/06 06:29:24;;;;;;;;;;;6.00;70.60;;;0.91;100.00;95702.34;4984210;28;19920;-54
2022/11/06 06:31:50;;;;;;;;;;;6.00;70.50;;;0.96;100.00;95704.38;4990826;28;19909;-55
2022/11/06 06:34:19;;;;;;;;;;;6.00;70.50;;;0.96;100.00;95691.25;4986698;28;19979;-53
2022/11/06 06:36:52;;;;;;;;;;;6.00;70.50;;;1.00;100.00;95685.38;4987946;28;20001;-56
2022/11/06 06:39:19;;;;;;;;;;;6.10;70.50;;;1.04;100.00;95686.63;4984667;28;19913;-53
2022/11/06 06:41:49;;;;;;;;;;;6.10;70.50;;;1.09;100.00;95681.53;4969117;28;19996;-54
2022/11/06 06:44:15;;;;;;;;;;;6.20;70.60;;;1.14;100.00;95689.63;4982751;28;20021;-52
2022/11/06 06:46:47;;;;;;;;;;;6.30;70.60;;;1.21;100.00;95696.69;4985591;28;19913;-56
2022/11/06 06:49:16;;;;;;;;;;;6.30;70.50;;;1.25;100.00;95693.44;4981714;28;19917;-57
2022/11/06 06:51:47;;;;;;;;;;;6.30;70.40;;;1.29;100.00;95683.38;4978872;28;19913;-54
2022/11/06 06:54:22;;;;;;;;;;;6.40;70.40;;;1.38;100.00;95669.84;4983547;28;20372;-57
2022/11/06 06:56:50;;;;;;;;;;;6.50;70.40;;;1.44;100.00;95654.25;4979560;28;19910;-53
2022/11/06 06:59:22;;;;;;;;;;;6.60;70.40;;;1.51;100.00;95661.13;4970479;28;19920;-55
2022/11/06 07:01:51;;;;;;;;;;;6.60;70.40;;;1.58;100.00;95666.34;4988172;28;19965;-52
2022/11/06 07:04:19;;;;;;;;;;;6.70;70.50;;;1.65;100.00;95661.88;4961575;28;19962;-54
2022/11/06 07:06:49;;;;;;;;;;;6.70;70.40;;;1.75;100.00;95654.38;4957793;28;19909;-56
2022/11/06 07:09:22;;;;;;;;;;;6.80;70.50;;;1.88;100.00;95663.22;4976014;28;19910;-55
2022/11/06 07:11:51;;;;;;;;;;;6.90;70.70;;;1.96;100.00;95658.53;4969881;28;19910;-55
2022/11/06 07:14:17;;;;;;;;;;;6.90;70.60;;;2.06;100.00;95651.00;4970990;28;19973;-56
2022/11/06 07:16:48;;;;;;;;;;;7.00;70.60;;;2.16;100.00;95645.31;4970819;28;20024;-55
2022/11/06 07:19:13;;;;;;;;;;;7.10;70.70;;;2.25;100.00;95651.94;4971075;28;19917;-55
2022/11/06 07:21:42;;;;;;;;;;;7.20;70.70;;;2.34;100.00;95646.44;4971693;28;20291;-56
2022/11/06 07:24:08;;;;;;;;;;;7.30;70.70;;;2.40;100.00;95635.88;4968920;28;19909;-57
2022/11/06 07:26:40;;;;;;;;;;;7.40;70.60;;;2.41;100.00;95631.41;4971869;28;19916;-56
2022/11/06 07:29:07;;;;;;;;;;;7.50;70.50;;;2.48;100.00;95619.84;4974249;28;19918;-53
2022/11/06 07:31:32;;;;;;;;;;;7.60;70.50;;;2.56;100.00;95626.66;4966744;28;19976;-52
2022/11/06 07:33:58;;;;;;;;;;;7.60;70.40;;;2.63;100.00;95619.53;4959359;28;20352;-52
2022/11/06 07:36:24;;;;;;;;;;;7.80;70.30;;;2.69;100.00;95620.50;4970425;28;20376;-58
2022/11/06 07:38:52;;;;;;;;;;;7.90;70.30;;;2.73;100.00;95609.34;4970428;28;20292;-54
2022/11/06 07:41:21;;;;;;;;;;;8.00;70.20;;;2.81;100.00;95610.09;4979053;28;19956;-55
2022/11/06 07:43:48;;;;;;;;;;;8.10;70.00;;;2.83;100.00;95600.19;4954523;28;19916;-58
2022/11/06 07:46:14;;;;;;;;;;;8.20;69.90;;;2.86;100.00;95592.66;4970109;28;19921;-58
2022/11/06 07:48:41;;;;;;;;;;;8.30;69.80;;;2.96;100.00;95585.06;4971901;28;19910;-58
2022/11/06 07:51:09;;;;;;;;;;;8.40;69.70;;;3.00;100.00;95582.81;4969263;28;19920;-58
2022/11/06 07:53:38;;;;;;;;;;;8.50;69.60;;;3.09;100.00;95580.72;4961757;28;20413;-58
2022/11/06 07:56:05;;;;;;;;;;;8.60;69.50;;;3.13;100.00;95573.97;4971960;28;19975;-55
2022/11/06 07:58:33;;;;;;;;;;;8.70;69.30;;;3.25;100.00;95572.25;4956089;28;19913;-54
2022/11/06 08:00:59;;;;;;;;;;;8.90;69.30;;;3.29;100.00;95573.44;4974364;28;20009;-54
2022/11/06 08:03:28;;;;;;;;;;;9.00;69.30;;;3.38;100.00;95571.28;4971479;28;20021;-55
2022/11/06 08:05:55;;;;;;;;;;;9.10;69.20;;;3.47;100.00;95565.50;4973607;28;20273;-54
2022/11/06 08:08:21;;;;;;;;;;;9.20;69.10;;;3.58;100.00;95561.34;4971634;28;19909;-57
2022/11/06 08:10:47;;;;;;;;;;;9.30;69.00;;;3.47;100.00;95567.34;4941971;28;31031;-58
2022/11/06 08:13:19;;;;;;;;;;;9.40;68.90;;;3.73;100.00;95566.25;4987321;28;19987;-56
2022/11/06 08:15:50;;;;;;;;;;;9.50;68.70;;;3.84;100.00;95567.31;4907079;28;19957;-58
2022/11/06 08:18:22;;;;;;;;;;;9.60;68.70;;;3.88;100.00;95558.72;4979575;28;19913;-58
2022/11/06 08:20:51;;;;;;;;;;;9.70;68.60;;;3.82;100.00;95570.16;4975308;28;19959;-58
2022/11/06 08:23:17;;;;;;;;;;;9.80;68.60;;;3.82;100.00;95575.44;5001640;28;19913;-58
2022/11/06 08:25:59;;;;;;;;;;;9.80;68.50;;;3.88;100.00;95574.53;4962138;28;20285;-58
2022/11/06 08:28:27;;;;;;;;;;;9.80;68.40;;;3.92;100.00;95565.19;4977866;28;20299;-53
2022/11/06 08:30:53;;;;;;;;;;;9.80;68.40;;;3.99;100.00;95562.47;4993644;28;19959;-57
2022/11/06 08:33:21;;;;;;;;;;;9.80;68.40;;;4.01;100.00;95564.84;4975165;28;20273;-55
2022/11/06 08:35:50;;;;;;;;;;;9.90;68.40;;;4.14;100.00;95562.84;4974780;28;19910;-55
2022/11/06 08:38:16;;;;;;;;;;;10.00;68.50;;;4.25;100.00;95560.47;4992257;28;19917;-57
2022/11/06 08:40:44;;;;;;;;;;;10.20;68.60;;;4.32;100.00;95550.63;4979810;28;19924;-58
2022/11/06 08:43:10;;;;;;;;;;;10.30;68.50;;;4.38;100.00;95547.09;4998815;28;19936;-57
2022/11/06 08:45:41;;;;;;;;;;;10.50;68.30;;;4.31;100.00;95535.84;4991464;28;19921;-58
2022/11/06 08:48:10;;;;;;;;;;;10.60;68.00;;;4.47;100.00;95522.00;4977612;28;20274;-57
2022/11/06 08:50:40;;;;;;;;;;;10.80;67.80;;;4.63;100.00;95507.31;4992669;28;20390;-58
2022/11/06 08:53:15;;;;;;;;;;;11.10;67.70;;;4.73;100.00;95494.38;4972749;28;19913;-57
2022/11/06 08:55:41;;;;;;;;;;;11.30;67.30;;;4.73;100.00;95483.84;4974930;28;19936;-55
2022/11/06 08:58:07;;;;;;;;;;;11.40;67.00;;;4.82;100.00;95487.69;4974622;28;20338;-55
2022/11/06 09:00:34;;;;;;;;;;;11.40;66.80;;;4.81;100.00;95507.22;4984987;28;20015;-56
2022/11/06 09:03:05;;;;;;;;;;;11.40;66.70;;;4.72;100.00;95505.97;4945856;28;19909;-55
2022/11/06 09:05:41;;;;;;;;;;;11.40;66.60;;;4.84;100.00;95519.97;4959212;28;19959;-57
2022/11/06 09:08:09;;;;;;;;;;;11.30;66.60;;;5.02;100.00;95534.88;4992220;28;20016;-57
2022/11/06 09:10:37;;;;;;;;;;;11.30;66.80;;;5.14;100.00;95542.81;4979289;28;19920;-56
2022/11/06 09:13:03;;;;;;;;;;;11.30;66.90;;;5.26;100.00;95540.94;4975656;28;20091;-56
2022/11/06 09:15:29;;;;;;;;;;;11.50;67.10;;;5.41;100.00;95544.94;4991136;28;20468;-51
2022/11/06 09:17:55;;;;;;;;;;;11.60;67.00;;;5.57;100.00;95546.84;4966966;28;19918;-57
2022/11/06 09:20:23;;;;;;;;;;;11.80;67.00;;;5.62;100.00;95554.09;4970898;28;20296;-54
2022/11/06 09:22:50;;;;;;;;;;;11.90;67.00;;;5.61;100.00;95563.03;4990964;28;19913;-51
2022/11/06 09:25:17;;;;;;;;;;;12.00;67.00;;;5.60;100.00;95566.72;4973767;28;19920;-55
2022/11/06 09:27:51;;;;;;;;;;;12.10;66.90;;;5.55;100.00;95570.88;4972932;28;19924;-52
2022/11/06 09:30:20;;;;;;;;;;;12.20;66.60;;;5.73;100.00;95571.75;4991012;28;20007;-52
2022/11/06 09:32:53;;;;;;;;;;;12.30;66.50;;;5.82;100.00;95548.41;4974212;28;19913;-50
2022/11/06 09:35:22;;;;;;;;;;;12.50;66.40;;;5.90;99.63;95543.53;4979647;28;19917;-54
2022/11/06 09:37:48;;;;;;;;;;;12.60;66.20;;;6.04;98.84;95536.16;4974602;28;19920;-53
2022/11/06 09:40:42;;;;;;;;;;;12.70;66.20;;;6.14;97.09;95533.72;4990619;28;20276;-51
2022/11/06 09:43:52;;;;;;;;;;;12.70;66.00;;;6.12;97.00;95540.28;4991670;28;20348;-51
2022/11/06 09:46:31;;;;;;;;;;;12.70;65.80;;;6.09;95.79;95523.03;4935520;28;19943;-53
2022/11/06 09:49:43;;;;;;;;;;;12.70;65.80;;;6.09;95.21;95506.38;4948527;28;19913;-56
2022/11/06 09:52:44;;;;;;;;;;;12.60;65.60;;;6.01;95.03;95499.59;4986984;28;20597;-50
2022/11/06 09:55:21;;;;;;;;;;;12.60;65.60;;;5.99;93.27;95491.91;4989557;28;19917;-51
2022/11/06 09:57:48;;;;;;;;;;;12.50;65.50;;;6.07;94.47;95496.00;4972976;28;19909;-49
2022/11/06 10:00:17;;;;;;;;;;;12.50;65.60;;;6.15;95.50;95500.94;4973165;28;20359;-54
2022/11/06 10:03:33;;;;;;;;;;;12.50;65.80;;;6.19;94.49;95501.25;4957541;28;19917;-54
2022/11/06 10:06:05;;;;;;;;;;;12.40;65.80;;;6.18;93.30;95494.34;4988713;28;20422;-54
2022/11/06 10:08:35;;;;;;;;;;;12.40;65.90;;;6.20;94.64;95503.63;4956639;28;20004;-54
2022/11/06 10:11:55;;;;;;;;;;;12.40;66.00;;;6.21;94.08;95499.97;4988595;28;20832;-54
2022/11/06 10:14:50;;;;;;;;;;;12.30;66.00;;;6.19;94.82;95501.25;4990216;28;19963;-55
2022/11/06 10:17:22;;;;;;;;;;;12.30;66.20;;;6.19;95.03;95496.75;4990253;28;19913;-49
2022/11/06 10:20:48;;;;;;;;;;;12.30;66.30;;;5.92;94.95;95503.63;4990166;28;19921;-56
2022/11/06 10:23:51;;;;;;;;;;;12.30;66.10;;;6.14;95.08;95501.97;4984765;28;19924;-50
2022/11/06 10:26:26;;;;;;;;;;;12.30;66.20;;;6.26;92.97;95497.41;4984145;28;19914;-54
2022/11/06 10:29:07;;;;;;;;;;;12.50;66.30;;;6.22;90.68;95498.91;4989784;28;20303;-55
2022/11/06 10:32:20;;;;;;;;;;;12.60;66.90;;;6.38;91.80;95501.81;4989214;28;19910;-55
2022/11/06 10:34:58;;;;;;;;;;;12.70;66.00;;;6.57;91.25;95497.09;4976151;28;20490;-54
2022/11/06 10:37:37;;;;;;;;;;;12.80;65.80;;;6.72;89.86;95486.75;4991885;28;19915;-54
2022/11/06 10:40:06;;;;;;;;;;;13.00;65.80;;;6.83;88.25;95483.22;4973563;28;19913;-56
2022/11/06 10:42:38;;;;;;;;;;;13.20;65.70;;;7.04;88.54;95472.88;4973346;28;19909;-57
2022/11/06 10:45:27;;;;;;;;;;;13.50;65.60;;;7.27;87.72;95475.34;4973706;28;19909;-56
2022/11/06 10:48:17;;;;;;;;;;;13.80;65.50;;;7.57;86.11;95471.44;4985242;28;20326;-55
2022/11/06 10:51:11;;;;;;;;;;;14.30;65.40;;;7.81;84.25;95469.31;4972368;28;19917;-53
2022/11/06 10:54:10;;;;;;;;;;;14.80;65.00;;;7.84;83.06;95469.63;4993349;28;19919;-51
2022/11/06 10:56:41;;;;;;;;;;;15.00;64.40;;;8.28;81.39;95464.19;4988866;28;19924;-54
2022/11/06 10:59:08;;;;;;;;;;;15.50;64.20;;;8.52;79.25;95462.03;4997775;28;20050;-56
2022/11/06 11:01:35;;;;;;;;;;;15.90;64.10;;;8.45;78.02;95469.38;4974416;28;19940;-54
2022/11/06 11:04:00;;;;;;;;;;;16.10;63.80;;;8.64;77.46;95466.34;4987752;28;19914;-57
2022/11/06 11:06:29;;;;;;;;;;;16.30;63.50;;;8.91;75.79;95466.28;4986665;28;19962;-55
2022/11/06 11:08:55;;;;;;;;;;;16.70;63.40;;;9.26;75.21;95460.34;4951892;28;20288;-53
2022/11/06 11:11:26;;;;;;;;;;;17.20;63.10;;;9.57;74.09;95457.81;4987715;28;19917;-50
2022/11/06 11:13:55;;;;;;;;;;;17.40;63.60;;;9.75;73.96;95449.38;4988006;28;19909;-54
2022/11/06 11:16:36;;;;;;;;;;;17.50;62.60;;;9.84;72.05;95450.47;4989918;28;19944;-50
2022/11/06 11:19:36;;;;;;;;;;;17.60;62.30;;;9.91;72.63;95451.00;4988099;28;20404;-52
2022/11/06 11:22:20;;;;;;;;;;;17.60;61.70;;;9.91;71.74;95440.34;4986593;28;20032;-57
2022/11/06 11:25:06;;;;;;;;;;;17.60;61.20;;;9.92;71.29;95433.16;4989969;28;20422;-55
2022/11/06 11:27:42;;;;;;;;;;;17.50;61.00;;;9.64;72.31;95429.09;4989660;28;19914;-51
2022/11/06 11:30:22;;;;;;;;;;;17.30;60.60;;;9.44;71.77;95421.88;4976653;28;20047;-51
2022/11/06 11:32:49;;;;;;;;;;;17.10;60.30;;;9.33;72.92;95415.72;4977076;28;20291;-52
2022/11/06 11:35:37;;;;;;;;;;;16.90;60.30;;;9.25;71.36;95413.56;4993182;28;19914;-53
2022/11/06 11:38:18;;;;;;;;;;;16.60;60.30;;;9.13;71.80;95421.75;4994339;28;19909;-54
2022/11/06 11:40:50;;;;;;;;;;;16.30;60.40;;;9.10;72.68;95416.97;4980435;28;20287;-51
2022/11/06 11:43:31;;;;;;;;;;;16.10;60.60;;;9.01;73.13;95406.00;4981836;28;20372;-52
2022/11/06 11:46:09;;;;;;;;;;;16.00;60.70;;;9.06;73.65;95404.44;4976850;28;20261;-51
2022/11/06 11:48:49;;;;;;;;;;;16.00;60.80;;;9.23;72.59;95399.72;4993622;28;20234;-53
2022/11/06 11:51:24;;;;;;;;;;;16.10;60.90;;;9.48;72.09;95388.38;4991518;28;20391;-49
2022/11/06 11:53:53;;;;;;;;;;;16.40;60.80;;;9.56;72.57;95392.38;4990475;28;19913;-54
2022/11/06 11:56:22;;;;;;;;;;;16.60;60.60;;;9.73;71.64;95387.66;4976374;28;19953;-50
2022/11/06 11:59:00;;;;;;;;;;;16.80;60.40;;;9.79;72.55;95393.78;4991183;28;20370;-51
2022/11/06 12:01:39;;;;;;;;;;;17.10;60.10;;;9.72;70.25;95386.06;4975954;28;19922;-52
2022/11/06 12:04:35;;;;;;;;;;;17.30;59.80;;;9.38;71.81;95394.47;4955786;28;20376;-53
2022/11/06 12:07:06;;;;;;;;;;;17.30;59.30;;;9.60;72.25;95388.16;4956944;28;20319;-52
2022/11/06 12:09:42;;;;;;;;;;;17.40;59.10;;;9.78;69.34;95385.00;4988219;28;19913;-54
2022/11/06 12:12:31;;;;;;;;;;;17.70;59.10;;;9.92;68.66;95379.94;4955956;28;20012;-50
2022/11/06 12:15:06;;;;;;;;;;;17.80;58.80;;;9.72;70.41;95370.88;4976981;28;20307;-54
2022/11/06 12:17:36;;;;;;;;;;;17.70;58.40;;;9.72;69.82;95364.78;4993033;28;19913;-50
2022/11/06 12:20:23;;;;;;;;;;;17.50;58.20;;;9.72;70.68;95362.13;4975774;28;19956;-54
2022/11/06 12:22:54;;;;;;;;;;;17.40;58.10;;;9.80;69.38;95366.09;4980659;28;19987;-50